sensor_id;sensor_type;location;lat;lon;timestamp;P1;durP1;ratioP1;P2;durP2;ratioP2
7479;SDS011;3781;42.272;22.658;2023-03-31T00:01:48;1.33;;;1.23;;
7479;SDS011;3781;42.272;22.658;2023-03-31T00:04:18;1.23;;;1.13;;
7479;SDS011;3781;42.272;22.658;2023-03-31T00:06:48;1.43;;;0.80;;
7479;SDS011;3781;42.272;22.658;2023-03-31T00:09:18;3.23;;;1.07;;
7479;SDS011;3781;42.272;22.658;2023-03-31T00:11:46;1.37;;;1.17;;
7479;SDS011;3781;42.272;22.658;2023-03-31T00:14:13;1.30;;;1.00;;
7479;SDS011;3781;42.272;22.658;2023-03-31T00:16:42;1.60;;;1.00;;
7479;SDS011;3781;42.272;22.658;2023-03-31T00:19:10;1.10;;;1.00;;
7479;SDS011;3781;42.272;22.658;2023-03-31T00:21:43;2.33;;;1.00;;
7479;SDS011;3781;42.272;22.658;2023-03-31T00:24:11;0.87;;;0.43;;
7479;SDS011;3781;42.272;22.658;2023-03-31T00:26:38;1.57;;;1.20;;
7479;SDS011;3781;42.272;22.658;2023-03-31T00:29:05;4.10;;;1.77;;
7479;SDS011;3781;42.272;22.658;2023-03-31T00:31:34;1.47;;;1.40;;
7479;SDS011;3781;42.272;22.658;2023-03-31T00:34:03;1.30;;;0.93;;
7479;SDS011;3781;42.272;22.658;2023-03-31T00:36:29;0.90;;;0.80;;
7479;SDS011;3781;42.272;22.658;2023-03-31T00:39:02;1.40;;;1.30;;
7479;SDS011;3781;42.272;22.658;2023-03-31T00:41:33;1.07;;;1.07;;
7479;SDS011;3781;42.272;22.658;2023-03-31T00:44:04;0.77;;;0.77;;
7479;SDS011;3781;42.272;22.658;2023-03-31T00:46:33;0.73;;;0.73;;
7479;SDS011;3781;42.272;22.658;2023-03-31T00:49:06;2.00;;;0.67;;
7479;SDS011;3781;42.272;22.658;2023-03-31T00:51:42;2.37;;;1.23;;
7479;SDS011;3781;42.272;22.658;2023-03-31T00:54:11;1.13;;;0.93;;
7479;SDS011;3781;42.272;22.658;2023-03-31T00:56:40;3.43;;;1.07;;
7479;SDS011;3781;42.272;22.658;2023-03-31T00:59:12;1.47;;;0.80;;
7479;SDS011;3781;42.272;22.658;2023-03-31T01:01:41;2.33;;;1.20;;
7479;SDS011;3781;42.272;22.658;2023-03-31T01:04:11;1.53;;;0.87;;
7479;SDS011;3781;42.272;22.658;2023-03-31T01:06:42;1.27;;;1.20;;
7479;SDS011;3781;42.272;22.658;2023-03-31T01:09:16;1.40;;;0.53;;
7479;SDS011;3781;42.272;22.658;2023-03-31T01:11:44;3.70;;;1.70;;
7479;SDS011;3781;42.272;22.658;2023-03-31T01:14:13;1.23;;;0.87;;
7479;SDS011;3781;42.272;22.658;2023-03-31T01:16:40;2.40;;;1.10;;
7479;SDS011;3781;42.272;22.658;2023-03-31T01:19:08;1.13;;;1.03;;
7479;SDS011;3781;42.272;22.658;2023-03-31T01:24:53;1.50;;;0.83;;
7479;SDS011;3781;42.272;22.658;2023-03-31T01:27:58;1.20;;;0.60;;
7479;SDS011;3781;42.272;22.658;2023-03-31T01:33:50;1.17;;;0.83;;
7479;SDS011;3781;42.272;22.658;2023-03-31T01:39:59;0.63;;;0.63;;
7479;SDS011;3781;42.272;22.658;2023-03-31T01:42:37;0.73;;;0.63;;
7479;SDS011;3781;42.272;22.658;2023-03-31T01:45:11;0.10;;;0.10;;
7479;SDS011;3781;42.272;22.658;2023-03-31T01:47:44;0.73;;;0.73;;
7479;SDS011;3781;42.272;22.658;2023-03-31T01:50:17;0.50;;;0.50;;
7479;SDS011;3781;42.272;22.658;2023-03-31T01:52:52;0.67;;;0.47;;
7479;SDS011;3781;42.272;22.658;2023-03-31T01:55:28;1.60;;;0.50;;
7479;SDS011;3781;42.272;22.658;2023-03-31T01:58:02;0.07;;;0.07;;
7479;SDS011;3781;42.272;22.658;2023-03-31T02:00:35;1.23;;;0.50;;
7479;SDS011;3781;42.272;22.658;2023-03-31T02:03:08;0.50;;;0.50;;
7479;SDS011;3781;42.272;22.658;2023-03-31T02:05:42;4.03;;;1.13;;
7479;SDS011;3781;42.272;22.658;2023-03-31T02:08:13;6.43;;;1.23;;
7479;SDS011;3781;42.272;22.658;2023-03-31T02:10:44;4.00;;;1.27;;
7479;SDS011;3781;42.272;22.658;2023-03-31T02:13:12;1.13;;;0.90;;
7479;SDS011;3781;42.272;22.658;2023-03-31T02:15:40;4.33;;;2.10;;
7479;SDS011;3781;42.272;22.658;2023-03-31T02:18:12;0.53;;;0.53;;
7479;SDS011;3781;42.272;22.658;2023-03-31T02:20:45;2.20;;;2.00;;
7479;SDS011;3781;42.272;22.658;2023-03-31T02:23:15;7.27;;;1.30;;
7479;SDS011;3781;42.272;22.658;2023-03-31T02:25:47;2.53;;;1.53;;
7479;SDS011;3781;42.272;22.658;2023-03-31T02:28:17;2.93;;;1.57;;
7479;SDS011;3781;42.272;22.658;2023-03-31T02:30:48;2.20;;;1.33;;
7479;SDS011;3781;42.272;22.658;2023-03-31T02:33:24;4.70;;;1.10;;
7479;SDS011;3781;42.272;22.658;2023-03-31T02:35:50;5.23;;;0.90;;
7479;SDS011;3781;42.272;22.658;2023-03-31T02:38:17;1.10;;;1.10;;
7479;SDS011;3781;42.272;22.658;2023-03-31T02:40:44;1.20;;;1.03;;
7479;SDS011;3781;42.272;22.658;2023-03-31T02:43:12;0.50;;;0.50;;
7479;SDS011;3781;42.272;22.658;2023-03-31T02:45:43;2.57;;;1.77;;
7479;SDS011;3781;42.272;22.658;2023-03-31T02:48:14;1.43;;;0.80;;
7479;SDS011;3781;42.272;22.658;2023-03-31T02:50:54;4.43;;;1.07;;
7479;SDS011;3781;42.272;22.658;2023-03-31T02:53:38;0.60;;;0.60;;
7479;SDS011;3781;42.272;22.658;2023-03-31T02:56:21;0.50;;;0.50;;
7479;SDS011;3781;42.272;22.658;2023-03-31T02:59:05;1.50;;;1.40;;
7479;SDS011;3781;42.272;22.658;2023-03-31T03:01:43;1.40;;;1.33;;
7479;SDS011;3781;42.272;22.658;2023-03-31T03:04:28;8.53;;;1.77;;
7479;SDS011;3781;42.272;22.658;2023-03-31T03:07:10;2.00;;;1.47;;
7479;SDS011;3781;42.272;22.658;2023-03-31T03:09:44;4.33;;;1.80;;
7479;SDS011;3781;42.272;22.658;2023-03-31T03:12:23;1.90;;;1.17;;
7479;SDS011;3781;42.272;22.658;2023-03-31T03:14:56;1.13;;;1.03;;
7479;SDS011;3781;42.272;22.658;2023-03-31T03:17:27;0.60;;;0.60;;
7479;SDS011;3781;42.272;22.658;2023-03-31T03:20:00;2.03;;;1.23;;
7479;SDS011;3781;42.272;22.658;2023-03-31T03:22:32;8.67;;;1.80;;
7479;SDS011;3781;42.272;22.658;2023-03-31T03:24:59;2.43;;;1.07;;
7479;SDS011;3781;42.272;22.658;2023-03-31T03:27:26;2.33;;;2.13;;
7479;SDS011;3781;42.272;22.658;2023-03-31T03:29:55;0.43;;;0.30;;
7479;SDS011;3781;42.272;22.658;2023-03-31T03:32:22;0.93;;;0.90;;
7479;SDS011;3781;42.272;22.658;2023-03-31T03:34:49;3.43;;;1.30;;
7479;SDS011;3781;42.272;22.658;2023-03-31T03:37:15;5.37;;;1.27;;
7479;SDS011;3781;42.272;22.658;2023-03-31T03:39:42;3.53;;;1.80;;
7479;SDS011;3781;42.272;22.658;2023-03-31T03:42:09;1.77;;;0.77;;
7479;SDS011;3781;42.272;22.658;2023-03-31T03:44:35;4.67;;;1.30;;
7479;SDS011;3781;42.272;22.658;2023-03-31T03:47:04;2.77;;;1.43;;
7479;SDS011;3781;42.272;22.658;2023-03-31T03:49:30;1.03;;;0.50;;
7479;SDS011;3781;42.272;22.658;2023-03-31T03:51:57;1.80;;;1.13;;
7479;SDS011;3781;42.272;22.658;2023-03-31T03:54:24;2.13;;;1.10;;
7479;SDS011;3781;42.272;22.658;2023-03-31T03:56:51;2.30;;;1.40;;
7479;SDS011;3781;42.272;22.658;2023-03-31T03:59:18;1.10;;;0.63;;
7479;SDS011;3781;42.272;22.658;2023-03-31T04:01:44;2.13;;;0.97;;
7479;SDS011;3781;42.272;22.658;2023-03-31T04:04:12;0.50;;;0.47;;
7479;SDS011;3781;42.272;22.658;2023-03-31T04:06:40;0.40;;;0.40;;
7479;SDS011;3781;42.272;22.658;2023-03-31T04:09:06;1.70;;;1.03;;
7479;SDS011;3781;42.272;22.658;2023-03-31T04:11:33;0.87;;;0.53;;
7479;SDS011;3781;42.272;22.658;2023-03-31T04:14:00;2.10;;;1.40;;
7479;SDS011;3781;42.272;22.658;2023-03-31T04:16:27;0.50;;;0.50;;
7479;SDS011;3781;42.272;22.658;2023-03-31T04:18:54;0.67;;;0.67;;
7479;SDS011;3781;42.272;22.658;2023-03-31T04:21:24;2.33;;;0.50;;
7479;SDS011;3781;42.272;22.658;2023-03-31T04:23:52;1.50;;;0.60;;
7479;SDS011;3781;42.272;22.658;2023-03-31T04:26:26;0.50;;;0.50;;
7479;SDS011;3781;42.272;22.658;2023-03-31T04:29:03;3.90;;;1.33;;
7479;SDS011;3781;42.272;22.658;2023-03-31T04:31:31;5.37;;;1.20;;
7479;SDS011;3781;42.272;22.658;2023-03-31T04:33:58;0.77;;;0.77;;
7479;SDS011;3781;42.272;22.658;2023-03-31T04:36:27;0.30;;;0.20;;
7479;SDS011;3781;42.272;22.658;2023-03-31T04:38:55;2.13;;;0.83;;
7479;SDS011;3781;42.272;22.658;2023-03-31T04:41:22;0.43;;;0.43;;
7479;SDS011;3781;42.272;22.658;2023-03-31T04:43:51;1.43;;;0.83;;
7479;SDS011;3781;42.272;22.658;2023-03-31T04:46:18;1.97;;;1.77;;
7479;SDS011;3781;42.272;22.658;2023-03-31T04:48:45;2.43;;;1.37;;
7479;SDS011;3781;42.272;22.658;2023-03-31T04:51:12;1.30;;;0.57;;
7479;SDS011;3781;42.272;22.658;2023-03-31T04:53:40;3.90;;;0.97;;
7479;SDS011;3781;42.272;22.658;2023-03-31T04:56:07;0.73;;;0.73;;
7479;SDS011;3781;42.272;22.658;2023-03-31T04:58:34;2.53;;;1.30;;
7479;SDS011;3781;42.272;22.658;2023-03-31T05:01:01;1.40;;;1.20;;
7479;SDS011;3781;42.272;22.658;2023-03-31T05:03:30;1.63;;;1.53;;
7479;SDS011;3781;42.272;22.658;2023-03-31T05:05:57;1.50;;;0.90;;
7479;SDS011;3781;42.272;22.658;2023-03-31T05:08:24;5.10;;;0.93;;
7479;SDS011;3781;42.272;22.658;2023-03-31T05:10:52;1.50;;;1.03;;
7479;SDS011;3781;42.272;22.658;2023-03-31T05:13:19;2.17;;;1.07;;
7479;SDS011;3781;42.272;22.658;2023-03-31T05:15:46;1.10;;;1.00;;
7479;SDS011;3781;42.272;22.658;2023-03-31T05:18:15;1.10;;;1.00;;
7479;SDS011;3781;42.272;22.658;2023-03-31T05:20:41;1.37;;;0.87;;
7479;SDS011;3781;42.272;22.658;2023-03-31T05:23:08;1.77;;;1.67;;
7479;SDS011;3781;42.272;22.658;2023-03-31T05:25:36;2.40;;;1.57;;
7479;SDS011;3781;42.272;22.658;2023-03-31T05:28:04;1.77;;;1.27;;
7479;SDS011;3781;42.272;22.658;2023-03-31T05:30:31;5.20;;;1.47;;
7479;SDS011;3781;42.272;22.658;2023-03-31T05:32:58;0.53;;;0.53;;
7479;SDS011;3781;42.272;22.658;2023-03-31T05:35:25;0.50;;;0.50;;
7479;SDS011;3781;42.272;22.658;2023-03-31T05:37:51;2.20;;;1.17;;
7479;SDS011;3781;42.272;22.658;2023-03-31T05:40:18;1.17;;;0.70;;
7479;SDS011;3781;42.272;22.658;2023-03-31T05:42:45;4.20;;;1.47;;
7479;SDS011;3781;42.272;22.658;2023-03-31T05:45:13;0.97;;;0.93;;
7479;SDS011;3781;42.272;22.658;2023-03-31T05:47:40;1.70;;;0.50;;
7479;SDS011;3781;42.272;22.658;2023-03-31T05:50:07;3.87;;;1.00;;
7479;SDS011;3781;42.272;22.658;2023-03-31T05:52:35;2.03;;;0.80;;
7479;SDS011;3781;42.272;22.658;2023-03-31T05:55:02;1.50;;;1.17;;
7479;SDS011;3781;42.272;22.658;2023-03-31T05:57:29;1.20;;;1.13;;
7479;SDS011;3781;42.272;22.658;2023-03-31T05:59:56;3.13;;;0.90;;
7479;SDS011;3781;42.272;22.658;2023-03-31T06:02:24;0.60;;;0.40;;
7479;SDS011;3781;42.272;22.658;2023-03-31T06:04:51;13.77;;;0.90;;
7479;SDS011;3781;42.272;22.658;2023-03-31T06:07:18;2.87;;;0.67;;
7479;SDS011;3781;42.272;22.658;2023-03-31T06:09:46;0.50;;;0.47;;
7479;SDS011;3781;42.272;22.658;2023-03-31T06:12:13;1.00;;;0.77;;
7479;SDS011;3781;42.272;22.658;2023-03-31T06:14:40;1.97;;;1.73;;
7479;SDS011;3781;42.272;22.658;2023-03-31T06:17:06;0.60;;;0.60;;
7479;SDS011;3781;42.272;22.658;2023-03-31T06:19:35;1.70;;;1.10;;
7479;SDS011;3781;42.272;22.658;2023-03-31T06:22:02;3.90;;;1.27;;
7479;SDS011;3781;42.272;22.658;2023-03-31T06:24:29;1.33;;;1.23;;
7479;SDS011;3781;42.272;22.658;2023-03-31T06:26:56;8.03;;;2.70;;
7479;SDS011;3781;42.272;22.658;2023-03-31T06:29:25;2.10;;;1.33;;
7479;SDS011;3781;42.272;22.658;2023-03-31T06:31:51;1.77;;;1.67;;
7479;SDS011;3781;42.272;22.658;2023-03-31T06:34:19;1.73;;;1.57;;
7479;SDS011;3781;42.272;22.658;2023-03-31T06:36:48;2.47;;;1.40;;
7479;SDS011;3781;42.272;22.658;2023-03-31T06:39:15;4.53;;;1.60;;
7479;SDS011;3781;42.272;22.658;2023-03-31T06:41:41;1.65;;;1.55;;
7479;SDS011;3781;42.272;22.658;2023-03-31T06:44:08;2.57;;;1.77;;
7479;SDS011;3781;42.272;22.658;2023-03-31T06:46:35;4.85;;;2.80;;
7479;SDS011;3781;42.272;22.658;2023-03-31T06:49:02;2.60;;;2.10;;
7479;SDS011;3781;42.272;22.658;2023-03-31T06:51:29;3.23;;;1.90;;
7479;SDS011;3781;42.272;22.658;2023-03-31T06:53:57;4.10;;;2.20;;
7479;SDS011;3781;42.272;22.658;2023-03-31T06:56:23;2.80;;;2.13;;
7479;SDS011;3781;42.272;22.658;2023-03-31T06:58:51;4.60;;;2.50;;
7479;SDS011;3781;42.272;22.658;2023-03-31T07:01:18;4.33;;;2.67;;
7479;SDS011;3781;42.272;22.658;2023-03-31T07:03:44;1.93;;;1.77;;
7479;SDS011;3781;42.272;22.658;2023-03-31T07:06:11;4.40;;;2.07;;
7479;SDS011;3781;42.272;22.658;2023-03-31T07:08:38;2.03;;;1.87;;
7479;SDS011;3781;42.272;22.658;2023-03-31T07:11:06;3.97;;;2.43;;
7479;SDS011;3781;42.272;22.658;2023-03-31T07:13:33;3.63;;;2.23;;
7479;SDS011;3781;42.272;22.658;2023-03-31T07:15:59;3.63;;;2.50;;
7479;SDS011;3781;42.272;22.658;2023-03-31T07:18:28;16.00;;;5.77;;
7479;SDS011;3781;42.272;22.658;2023-03-31T07:20:59;13.10;;;6.30;;
7479;SDS011;3781;42.272;22.658;2023-03-31T07:23:25;6.30;;;1.93;;
7479;SDS011;3781;42.272;22.658;2023-03-31T07:25:52;1.30;;;1.20;;
7479;SDS011;3781;42.272;22.658;2023-03-31T07:28:20;2.33;;;2.07;;
7479;SDS011;3781;42.272;22.658;2023-03-31T07:30:47;14.43;;;2.90;;
7479;SDS011;3781;42.272;22.658;2023-03-31T07:33:14;4.40;;;2.67;;
7479;SDS011;3781;42.272;22.658;2023-03-31T07:35:41;4.13;;;3.10;;
7479;SDS011;3781;42.272;22.658;2023-03-31T07:38:08;5.37;;;2.83;;
7479;SDS011;3781;42.272;22.658;2023-03-31T07:40:35;9.03;;;3.63;;
7479;SDS011;3781;42.272;22.658;2023-03-31T07:43:02;4.43;;;2.77;;
7479;SDS011;3781;42.272;22.658;2023-03-31T07:45:31;3.43;;;2.33;;
7479;SDS011;3781;42.272;22.658;2023-03-31T07:47:58;4.17;;;2.23;;
7479;SDS011;3781;42.272;22.658;2023-03-31T07:50:25;4.07;;;3.17;;
7479;SDS011;3781;42.272;22.658;2023-03-31T07:52:52;3.57;;;2.47;;
7479;SDS011;3781;42.272;22.658;2023-03-31T07:55:19;3.33;;;2.53;;
7479;SDS011;3781;42.272;22.658;2023-03-31T07:57:47;11.70;;;3.17;;
7479;SDS011;3781;42.272;22.658;2023-03-31T08:00:15;4.20;;;2.60;;
7479;SDS011;3781;42.272;22.658;2023-03-31T08:02:45;6.67;;;3.40;;
7479;SDS011;3781;42.272;22.658;2023-03-31T08:05:12;5.10;;;2.40;;
7479;SDS011;3781;42.272;22.658;2023-03-31T08:07:41;5.47;;;2.70;;
7479;SDS011;3781;42.272;22.658;2023-03-31T08:10:11;6.00;;;2.90;;
7479;SDS011;3781;42.272;22.658;2023-03-31T08:12:39;4.30;;;2.70;;
7479;SDS011;3781;42.272;22.658;2023-03-31T08:15:06;3.90;;;2.40;;
7479;SDS011;3781;42.272;22.658;2023-03-31T08:17:34;4.27;;;2.80;;
7479;SDS011;3781;42.272;22.658;2023-03-31T08:20:02;3.87;;;2.17;;
7479;SDS011;3781;42.272;22.658;2023-03-31T08:22:31;3.23;;;2.13;;
7479;SDS011;3781;42.272;22.658;2023-03-31T08:24:58;3.00;;;2.43;;
7479;SDS011;3781;42.272;22.658;2023-03-31T08:27:25;4.17;;;2.27;;
7479;SDS011;3781;42.272;22.658;2023-03-31T08:29:52;7.37;;;2.87;;
7479;SDS011;3781;42.272;22.658;2023-03-31T08:32:20;7.77;;;3.43;;
7479;SDS011;3781;42.272;22.658;2023-03-31T08:34:47;4.73;;;2.53;;
7479;SDS011;3781;42.272;22.658;2023-03-31T08:37:16;4.43;;;3.20;;
7479;SDS011;3781;42.272;22.658;2023-03-31T08:39:42;4.00;;;1.97;;
7479;SDS011;3781;42.272;22.658;2023-03-31T08:42:10;4.90;;;2.43;;
7479;SDS011;3781;42.272;22.658;2023-03-31T08:44:41;3.57;;;1.70;;
7479;SDS011;3781;42.272;22.658;2023-03-31T08:47:14;5.10;;;3.20;;
7479;SDS011;3781;42.272;22.658;2023-03-31T08:49:44;3.37;;;2.33;;
7479;SDS011;3781;42.272;22.658;2023-03-31T08:52:18;2.37;;;2.23;;
7479;SDS011;3781;42.272;22.658;2023-03-31T08:54:50;2.87;;;2.10;;
7479;SDS011;3781;42.272;22.658;2023-03-31T08:57:22;2.10;;;1.67;;
7479;SDS011;3781;42.272;22.658;2023-03-31T08:59:51;0.77;;;0.73;;
7479;SDS011;3781;42.272;22.658;2023-03-31T09:02:24;0.73;;;0.50;;
7479;SDS011;3781;42.272;22.658;2023-03-31T09:05:11;2.43;;;0.70;;
7479;SDS011;3781;42.272;22.658;2023-03-31T09:07:51;1.50;;;1.40;;
7479;SDS011;3781;42.272;22.658;2023-03-31T09:10:27;0.50;;;0.20;;
7479;SDS011;3781;42.272;22.658;2023-03-31T09:13:11;1.53;;;1.10;;
7479;SDS011;3781;42.272;22.658;2023-03-31T09:15:49;0.70;;;0.50;;
7479;SDS011;3781;42.272;22.658;2023-03-31T09:18:25;0.77;;;0.40;;
7479;SDS011;3781;42.272;22.658;2023-03-31T09:20:58;1.07;;;0.90;;
7479;SDS011;3781;42.272;22.658;2023-03-31T09:23:32;0.63;;;0.40;;
7479;SDS011;3781;42.272;22.658;2023-03-31T09:26:04;0.27;;;0.27;;
7479;SDS011;3781;42.272;22.658;2023-03-31T09:28:38;1.33;;;0.93;;
7479;SDS011;3781;42.272;22.658;2023-03-31T09:31:07;0.50;;;0.50;;
7479;SDS011;3781;42.272;22.658;2023-03-31T09:33:41;0.73;;;0.30;;
7479;SDS011;3781;42.272;22.658;2023-03-31T09:36:12;2.50;;;0.77;;
7479;SDS011;3781;42.272;22.658;2023-03-31T09:38:43;0.53;;;0.50;;
7479;SDS011;3781;42.272;22.658;2023-03-31T09:41:10;0.43;;;0.43;;
7479;SDS011;3781;42.272;22.658;2023-03-31T09:43:39;0.35;;;0.35;;
7479;SDS011;3781;42.272;22.658;2023-03-31T09:46:11;0.25;;;0.25;;
7479;SDS011;3781;42.272;22.658;2023-03-31T09:48:47;0.20;;;0.20;;
7479;SDS011;3781;42.272;22.658;2023-03-31T09:51:21;0.73;;;0.40;;
7479;SDS011;3781;42.272;22.658;2023-03-31T09:53:57;0.30;;;0.30;;
7479;SDS011;3781;42.272;22.658;2023-03-31T09:59:18;0.67;;;0.37;;
7479;SDS011;3781;42.272;22.658;2023-03-31T10:01:46;1.70;;;0.10;;
7479;SDS011;3781;42.272;22.658;2023-03-31T10:04:17;0.17;;;0.17;;
7479;SDS011;3781;42.272;22.658;2023-03-31T10:06:47;0.30;;;0.30;;
7479;SDS011;3781;42.272;22.658;2023-03-31T10:09:17;0.23;;;0.23;;
7479;SDS011;3781;42.272;22.658;2023-03-31T10:11:51;0.80;;;0.80;;
7479;SDS011;3781;42.272;22.658;2023-03-31T10:14:26;1.73;;;0.30;;
7479;SDS011;3781;42.272;22.658;2023-03-31T10:17:04;0.20;;;0.20;;
7479;SDS011;3781;42.272;22.658;2023-03-31T10:19:32;0.70;;;0.70;;
7479;SDS011;3781;42.272;22.658;2023-03-31T10:22:00;0.77;;;0.50;;
7479;SDS011;3781;42.272;22.658;2023-03-31T10:24:37;0.40;;;0.40;;
7479;SDS011;3781;42.272;22.658;2023-03-31T10:27:06;0.67;;;0.60;;
7479;SDS011;3781;42.272;22.658;2023-03-31T10:29:46;2.60;;;0.63;;
7479;SDS011;3781;42.272;22.658;2023-03-31T10:32:17;0.20;;;0.20;;
7479;SDS011;3781;42.272;22.658;2023-03-31T10:34:49;0.40;;;0.30;;
7479;SDS011;3781;42.272;22.658;2023-03-31T10:37:17;1.20;;;0.73;;
7479;SDS011;3781;42.272;22.658;2023-03-31T10:39:49;5.87;;;1.17;;
7479;SDS011;3781;42.272;22.658;2023-03-31T10:42:22;0.63;;;0.40;;
7479;SDS011;3781;42.272;22.658;2023-03-31T10:44:53;0.80;;;0.80;;
7479;SDS011;3781;42.272;22.658;2023-03-31T10:47:37;0.53;;;0.37;;
7479;SDS011;3781;42.272;22.658;2023-03-31T10:50:08;2.93;;;0.37;;
7479;SDS011;3781;42.272;22.658;2023-03-31T10:52:43;1.80;;;0.30;;
7479;SDS011;3781;42.272;22.658;2023-03-31T10:55:17;1.07;;;0.60;;
7479;SDS011;3781;42.272;22.658;2023-03-31T10:57:50;0.70;;;0.70;;
7479;SDS011;3781;42.272;22.658;2023-03-31T11:00:23;0.77;;;0.50;;
7479;SDS011;3781;42.272;22.658;2023-03-31T11:03:17;1.07;;;0.97;;
7479;SDS011;3781;42.272;22.658;2023-03-31T11:06:02;4.03;;;1.67;;
7479;SDS011;3781;42.272;22.658;2023-03-31T11:08:39;0.20;;;0.20;;
7479;SDS011;3781;42.272;22.658;2023-03-31T11:11:21;1.90;;;0.73;;
7479;SDS011;3781;42.272;22.658;2023-03-31T11:13:57;0.57;;;0.27;;
7479;SDS011;3781;42.272;22.658;2023-03-31T11:16:32;0.50;;;0.50;;
7479;SDS011;3781;42.272;22.658;2023-03-31T11:19:10;1.00;;;0.20;;
7479;SDS011;3781;42.272;22.658;2023-03-31T11:21:49;4.07;;;1.00;;
7479;SDS011;3781;42.272;22.658;2023-03-31T11:27:23;0.40;;;0.40;;
7479;SDS011;3781;42.272;22.658;2023-03-31T11:29:59;0.77;;;0.77;;
7479;SDS011;3781;42.272;22.658;2023-03-31T11:32:33;0.47;;;0.47;;
7479;SDS011;3781;42.272;22.658;2023-03-31T11:35:16;0.37;;;0.23;;
7479;SDS011;3781;42.272;22.658;2023-03-31T11:38:01;2.47;;;0.60;;
7479;SDS011;3781;42.272;22.658;2023-03-31T11:40:49;1.17;;;0.30;;
7479;SDS011;3781;42.272;22.658;2023-03-31T11:43:27;2.17;;;0.80;;
7479;SDS011;3781;42.272;22.658;2023-03-31T11:45:59;4.10;;;0.47;;
7479;SDS011;3781;42.272;22.658;2023-03-31T11:48:32;1.70;;;0.50;;
7479;SDS011;3781;42.272;22.658;2023-03-31T11:51:05;0.23;;;0.23;;
7479;SDS011;3781;42.272;22.658;2023-03-31T11:53:37;1.77;;;0.50;;
7479;SDS011;3781;42.272;22.658;2023-03-31T11:56:07;0.63;;;0.60;;
7479;SDS011;3781;42.272;22.658;2023-03-31T11:58:39;1.60;;;0.40;;
7479;SDS011;3781;42.272;22.658;2023-03-31T12:01:13;0.60;;;0.50;;
7479;SDS011;3781;42.272;22.658;2023-03-31T12:03:46;0.63;;;0.33;;
7479;SDS011;3781;42.272;22.658;2023-03-31T12:06:21;0.40;;;0.40;;
7479;SDS011;3781;42.272;22.658;2023-03-31T12:08:56;2.35;;;1.45;;
7479;SDS011;3781;42.272;22.658;2023-03-31T12:11:34;4.67;;;0.50;;
7479;SDS011;3781;42.272;22.658;2023-03-31T12:14:10;0.80;;;0.80;;
7479;SDS011;3781;42.272;22.658;2023-03-31T12:16:44;0.50;;;0.50;;
7479;SDS011;3781;42.272;22.658;2023-03-31T12:19:14;1.23;;;0.80;;
7479;SDS011;3781;42.272;22.658;2023-03-31T12:21:48;0.27;;;0.27;;
7479;SDS011;3781;42.272;22.658;2023-03-31T12:24:18;0.73;;;0.30;;
7479;SDS011;3781;42.272;22.658;2023-03-31T12:26:48;0.57;;;0.33;;
7479;SDS011;3781;42.272;22.658;2023-03-31T12:29:24;0.43;;;0.43;;
7479;SDS011;3781;42.272;22.658;2023-03-31T12:31:56;0.10;;;0.10;;
7479;SDS011;3781;42.272;22.658;2023-03-31T12:34:25;0.57;;;0.57;;
7479;SDS011;3781;42.272;22.658;2023-03-31T12:37:07;0.40;;;0.40;;
7479;SDS011;3781;42.272;22.658;2023-03-31T12:40:09;0.40;;;0.40;;
7479;SDS011;3781;42.272;22.658;2023-03-31T12:42:47;0.57;;;0.57;;
7479;SDS011;3781;42.272;22.658;2023-03-31T12:45:25;0.70;;;0.47;;
7479;SDS011;3781;42.272;22.658;2023-03-31T12:48:01;17.73;;;0.43;;
7479;SDS011;3781;42.272;22.658;2023-03-31T12:50:52;0.30;;;0.30;;
7479;SDS011;3781;42.272;22.658;2023-03-31T12:53:30;0.73;;;0.43;;
7479;SDS011;3781;42.272;22.658;2023-03-31T12:56:04;0.10;;;0.10;;
7479;SDS011;3781;42.272;22.658;2023-03-31T12:58:43;0.37;;;0.30;;
7479;SDS011;3781;42.272;22.658;2023-03-31T13:01:16;0.90;;;0.43;;
7479;SDS011;3781;42.272;22.658;2023-03-31T13:03:48;1.97;;;0.30;;
7479;SDS011;3781;42.272;22.658;2023-03-31T13:12:08;1.47;;;0.80;;
7479;SDS011;3781;42.272;22.658;2023-03-31T13:14:41;0.63;;;0.50;;
7479;SDS011;3781;42.272;22.658;2023-03-31T13:17:24;2.03;;;0.40;;
7479;SDS011;3781;42.272;22.658;2023-03-31T13:19:56;0.50;;;0.50;;
7479;SDS011;3781;42.272;22.658;2023-03-31T13:22:58;0.47;;;0.43;;
7479;SDS011;3781;42.272;22.658;2023-03-31T13:28:17;0.63;;;0.63;;
7479;SDS011;3781;42.272;22.658;2023-03-31T13:30:51;0.27;;;0.27;;
7479;SDS011;3781;42.272;22.658;2023-03-31T13:33:26;0.20;;;0.20;;
7479;SDS011;3781;42.272;22.658;2023-03-31T13:36:03;0.20;;;0.20;;
7479;SDS011;3781;42.272;22.658;2023-03-31T13:38:52;0.30;;;0.30;;
7479;SDS011;3781;42.272;22.658;2023-03-31T13:41:42;0.70;;;0.20;;
7479;SDS011;3781;42.272;22.658;2023-03-31T13:44:39;2.43;;;0.50;;
7479;SDS011;3781;42.272;22.658;2023-03-31T13:50:42;0.40;;;0.40;;
7479;SDS011;3781;42.272;22.658;2023-03-31T13:53:23;0.40;;;0.40;;
7479;SDS011;3781;42.272;22.658;2023-03-31T13:56:16;1.20;;;0.73;;
7479;SDS011;3781;42.272;22.658;2023-03-31T13:59:18;2.00;;;0.70;;
7479;SDS011;3781;42.272;22.658;2023-03-31T14:05:22;0.30;;;0.23;;
7479;SDS011;3781;42.272;22.658;2023-03-31T14:08:06;0.70;;;0.53;;
7479;SDS011;3781;42.272;22.658;2023-03-31T14:10:39;2.27;;;0.50;;
7479;SDS011;3781;42.272;22.658;2023-03-31T14:13:16;0.60;;;0.43;;
7479;SDS011;3781;42.272;22.658;2023-03-31T14:15:45;0.30;;;0.30;;
7479;SDS011;3781;42.272;22.658;2023-03-31T14:18:18;2.03;;;0.70;;
7479;SDS011;3781;42.272;22.658;2023-03-31T14:21:10;2.50;;;0.30;;
7479;SDS011;3781;42.272;22.658;2023-03-31T14:23:51;0.63;;;0.47;;
7479;SDS011;3781;42.272;22.658;2023-03-31T14:26:47;0.93;;;0.37;;
7479;SDS011;3781;42.272;22.658;2023-03-31T14:29:30;0.73;;;0.30;;
7479;SDS011;3781;42.272;22.658;2023-03-31T14:32:06;1.37;;;0.70;;
7479;SDS011;3781;42.272;22.658;2023-03-31T14:35:12;3.70;;;0.40;;
7479;SDS011;3781;42.272;22.658;2023-03-31T14:37:53;0.50;;;0.50;;
7479;SDS011;3781;42.272;22.658;2023-03-31T14:40:22;0.73;;;0.63;;
7479;SDS011;3781;42.272;22.658;2023-03-31T14:42:50;0.20;;;0.20;;
7479;SDS011;3781;42.272;22.658;2023-03-31T14:45:20;0.60;;;0.30;;
7479;SDS011;3781;42.272;22.658;2023-03-31T14:47:54;0.67;;;0.67;;
7479;SDS011;3781;42.272;22.658;2023-03-31T14:50:27;0.93;;;0.13;;
7479;SDS011;3781;42.272;22.658;2023-03-31T14:52:55;4.43;;;0.60;;
7479;SDS011;3781;42.272;22.658;2023-03-31T14:55:25;1.50;;;0.80;;
7479;SDS011;3781;42.272;22.658;2023-03-31T14:58:04;2.27;;;1.13;;
7479;SDS011;3781;42.272;22.658;2023-03-31T15:00:32;0.47;;;0.47;;
7479;SDS011;3781;42.272;22.658;2023-03-31T15:03:05;1.00;;;0.87;;
7479;SDS011;3781;42.272;22.658;2023-03-31T15:05:37;1.77;;;0.60;;
7479;SDS011;3781;42.272;22.658;2023-03-31T15:08:10;0.40;;;0.40;;
7479;SDS011;3781;42.272;22.658;2023-03-31T15:10:44;2.70;;;0.53;;
7479;SDS011;3781;42.272;22.658;2023-03-31T15:13:23;0.87;;;0.50;;
7479;SDS011;3781;42.272;22.658;2023-03-31T15:15:57;0.53;;;0.50;;
7479;SDS011;3781;42.272;22.658;2023-03-31T15:18:47;0.80;;;0.60;;
7479;SDS011;3781;42.272;22.658;2023-03-31T15:21:18;9.93;;;4.13;;
7479;SDS011;3781;42.272;22.658;2023-03-31T15:23:47;0.80;;;0.80;;
7479;SDS011;3781;42.272;22.658;2023-03-31T15:26:18;0.65;;;0.65;;
7479;SDS011;3781;42.272;22.658;2023-03-31T15:28:48;3.65;;;1.90;;
7479;SDS011;3781;42.272;22.658;2023-03-31T15:31:19;17.30;;;4.20;;
7479;SDS011;3781;42.272;22.658;2023-03-31T15:33:46;0.90;;;0.90;;
7479;SDS011;3781;42.272;22.658;2023-03-31T15:36:15;0.10;;;0.10;;
7479;SDS011;3781;42.272;22.658;2023-03-31T15:38:42;0.60;;;0.43;;
7479;SDS011;3781;42.272;22.658;2023-03-31T15:41:15;1.57;;;0.90;;
7479;SDS011;3781;42.272;22.658;2023-03-31T15:43:45;0.50;;;0.40;;
7479;SDS011;3781;42.272;22.658;2023-03-31T15:46:18;0.60;;;0.60;;
7479;SDS011;3781;42.272;22.658;2023-03-31T15:48:55;0.87;;;0.87;;
7479;SDS011;3781;42.272;22.658;2023-03-31T15:51:23;0.65;;;0.50;;
7479;SDS011;3781;42.272;22.658;2023-03-31T15:53:53;0.40;;;0.40;;
7479;SDS011;3781;42.272;22.658;2023-03-31T15:56:24;1.20;;;0.80;;
7479;SDS011;3781;42.272;22.658;2023-03-31T15:58:57;1.90;;;0.90;;
7479;SDS011;3781;42.272;22.658;2023-03-31T16:01:29;1.40;;;0.80;;